sensor_id;sensor_type;location;lat;lon;timestamp;P1;durP1;ratioP1;P2;durP2;ratioP2
5690;SDS011;2870;42.680;23.364;2023-05-16T00:00:57;24.50;;;18.57;;
5690;SDS011;2870;42.680;23.364;2023-05-16T00:03:26;23.93;;;17.83;;
5690;SDS011;2870;42.680;23.364;2023-05-16T00:05:54;20.80;;;16.87;;
5690;SDS011;2870;42.680;23.364;2023-05-16T00:08:22;24.60;;;17.93;;
5690;SDS011;2870;42.680;23.364;2023-05-16T00:10:48;25.27;;;18.80;;
5690;SDS011;2870;42.680;23.364;2023-05-16T00:13:15;28.23;;;19.53;;
5690;SDS011;2870;42.680;23.364;2023-05-16T00:15:46;31.23;;;21.37;;
5690;SDS011;2870;42.680;23.364;2023-05-16T00:18:15;35.63;;;18.50;;
5690;SDS011;2870;42.680;23.364;2023-05-16T00:20:42;31.07;;;19.87;;
5690;SDS011;2870;42.680;23.364;2023-05-16T00:23:08;28.13;;;18.93;;
5690;SDS011;2870;42.680;23.364;2023-05-16T00:25:37;35.80;;;18.50;;
5690;SDS011;2870;42.680;23.364;2023-05-16T00:28:03;33.80;;;19.33;;
5690;SDS011;2870;42.680;23.364;2023-05-16T00:30:30;31.50;;;19.53;;
5690;SDS011;2870;42.680;23.364;2023-05-16T00:32:57;24.30;;;18.30;;
5690;SDS011;2870;42.680;23.364;2023-05-16T00:35:25;24.57;;;19.07;;
5690;SDS011;2870;42.680;23.364;2023-05-16T00:37:52;30.70;;;19.10;;
5690;SDS011;2870;42.680;23.364;2023-05-16T00:40:19;29.20;;;20.17;;
5690;SDS011;2870;42.680;23.364;2023-05-16T00:42:46;23.37;;;18.70;;
5690;SDS011;2870;42.680;23.364;2023-05-16T00:45:13;23.37;;;18.20;;
5690;SDS011;2870;42.680;23.364;2023-05-16T00:47:39;23.97;;;18.80;;
5690;SDS011;2870;42.680;23.364;2023-05-16T00:50:06;27.53;;;17.90;;
5690;SDS011;2870;42.680;23.364;2023-05-16T00:52:35;24.50;;;19.07;;
5690;SDS011;2870;42.680;23.364;2023-05-16T00:55:02;27.47;;;19.40;;
5690;SDS011;2870;42.680;23.364;2023-05-16T00:57:30;33.23;;;19.93;;
5690;SDS011;2870;42.680;23.364;2023-05-16T00:59:57;26.57;;;19.20;;
5690;SDS011;2870;42.680;23.364;2023-05-16T01:02:23;26.73;;;18.30;;
5690;SDS011;2870;42.680;23.364;2023-05-16T01:04:53;28.20;;;19.40;;
5690;SDS011;2870;42.680;23.364;2023-05-16T01:07:20;25.00;;;19.40;;
5690;SDS011;2870;42.680;23.364;2023-05-16T01:09:49;27.90;;;19.17;;
5690;SDS011;2870;42.680;23.364;2023-05-16T01:12:18;41.93;;;21.80;;
5690;SDS011;2870;42.680;23.364;2023-05-16T01:14:54;26.73;;;20.40;;
5690;SDS011;2870;42.680;23.364;2023-05-16T01:17:28;26.47;;;19.73;;
5690;SDS011;2870;42.680;23.364;2023-05-16T01:20:05;28.27;;;20.10;;
5690;SDS011;2870;42.680;23.364;2023-05-16T01:22:45;22.73;;;19.37;;
5690;SDS011;2870;42.680;23.364;2023-05-16T01:25:30;25.57;;;19.30;;
5690;SDS011;2870;42.680;23.364;2023-05-16T01:28:05;24.40;;;18.43;;
5690;SDS011;2870;42.680;23.364;2023-05-16T01:30:34;24.60;;;17.77;;
5690;SDS011;2870;42.680;23.364;2023-05-16T01:33:03;22.60;;;17.27;;
5690;SDS011;2870;42.680;23.364;2023-05-16T01:35:30;25.30;;;17.33;;
5690;SDS011;2870;42.680;23.364;2023-05-16T01:37:58;25.60;;;17.80;;
5690;SDS011;2870;42.680;23.364;2023-05-16T01:40:37;25.33;;;18.10;;
5690;SDS011;2870;42.680;23.364;2023-05-16T01:43:13;21.13;;;17.10;;
5690;SDS011;2870;42.680;23.364;2023-05-16T01:45:46;22.30;;;16.57;;
5690;SDS011;2870;42.680;23.364;2023-05-16T01:48:19;26.10;;;17.30;;
5690;SDS011;2870;42.680;23.364;2023-05-16T01:50:49;22.33;;;16.97;;
5690;SDS011;2870;42.680;23.364;2023-05-16T01:53:21;23.40;;;18.87;;
5690;SDS011;2870;42.680;23.364;2023-05-16T01:55:52;22.70;;;16.80;;
5690;SDS011;2870;42.680;23.364;2023-05-16T01:58:24;24.70;;;18.07;;
5690;SDS011;2870;42.680;23.364;2023-05-16T02:00:53;27.23;;;16.87;;
5690;SDS011;2870;42.680;23.364;2023-05-16T02:03:25;33.93;;;18.43;;
5690;SDS011;2870;42.680;23.364;2023-05-16T02:05:52;22.23;;;16.47;;
5690;SDS011;2870;42.680;23.364;2023-05-16T02:08:19;28.10;;;16.70;;
5690;SDS011;2870;42.680;23.364;2023-05-16T02:10:46;21.97;;;16.90;;
5690;SDS011;2870;42.680;23.364;2023-05-16T02:13:12;25.37;;;18.03;;
5690;SDS011;2870;42.680;23.364;2023-05-16T02:15:41;23.10;;;16.50;;
5690;SDS011;2870;42.680;23.364;2023-05-16T02:18:07;23.40;;;16.13;;
5690;SDS011;2870;42.680;23.364;2023-05-16T02:20:35;23.57;;;18.03;;
5690;SDS011;2870;42.680;23.364;2023-05-16T02:23:02;23.63;;;16.77;;
5690;SDS011;2870;42.680;23.364;2023-05-16T02:25:28;21.77;;;16.50;;
5690;SDS011;2870;42.680;23.364;2023-05-16T02:27:55;31.83;;;16.67;;
5690;SDS011;2870;42.680;23.364;2023-05-16T02:30:22;22.50;;;16.23;;
5690;SDS011;2870;42.680;23.364;2023-05-16T02:32:50;22.70;;;16.07;;
5690;SDS011;2870;42.680;23.364;2023-05-16T02:35:18;25.60;;;15.10;;
5690;SDS011;2870;42.680;23.364;2023-05-16T02:37:45;26.37;;;14.83;;
5690;SDS011;2870;42.680;23.364;2023-05-16T02:40:12;19.13;;;14.10;;
5690;SDS011;2870;42.680;23.364;2023-05-16T02:42:39;21.93;;;15.70;;
5690;SDS011;2870;42.680;23.364;2023-05-16T02:45:06;22.20;;;15.10;;
5690;SDS011;2870;42.680;23.364;2023-05-16T02:47:33;24.33;;;16.03;;
5690;SDS011;2870;42.680;23.364;2023-05-16T02:50:01;23.97;;;14.07;;
5690;SDS011;2870;42.680;23.364;2023-05-16T02:52:28;21.07;;;14.83;;
5690;SDS011;2870;42.680;23.364;2023-05-16T02:54:56;23.70;;;14.90;;
5690;SDS011;2870;42.680;23.364;2023-05-16T02:57:22;22.83;;;14.20;;
5690;SDS011;2870;42.680;23.364;2023-05-16T02:59:49;17.17;;;14.17;;
5690;SDS011;2870;42.680;23.364;2023-05-16T03:02:16;27.23;;;14.43;;
5690;SDS011;2870;42.680;23.364;2023-05-16T03:04:43;19.97;;;14.30;;
5690;SDS011;2870;42.680;23.364;2023-05-16T03:07:11;20.50;;;14.00;;
5690;SDS011;2870;42.680;23.364;2023-05-16T03:09:38;17.17;;;12.90;;
5690;SDS011;2870;42.680;23.364;2023-05-16T03:12:04;18.83;;;14.07;;
5690;SDS011;2870;42.680;23.364;2023-05-16T03:14:31;27.33;;;15.53;;
5690;SDS011;2870;42.680;23.364;2023-05-16T03:16:58;22.20;;;13.80;;
5690;SDS011;2870;42.680;23.364;2023-05-16T03:19:25;20.17;;;14.60;;
5690;SDS011;2870;42.680;23.364;2023-05-16T03:21:52;22.10;;;14.23;;
5690;SDS011;2870;42.680;23.364;2023-05-16T03:24:20;20.97;;;14.67;;
5690;SDS011;2870;42.680;23.364;2023-05-16T03:26:47;25.83;;;13.70;;
5690;SDS011;2870;42.680;23.364;2023-05-16T03:29:14;21.10;;;13.90;;
5690;SDS011;2870;42.680;23.364;2023-05-16T03:31:41;20.40;;;14.70;;
5690;SDS011;2870;42.680;23.364;2023-05-16T03:34:08;19.60;;;13.33;;
5690;SDS011;2870;42.680;23.364;2023-05-16T03:36:34;20.47;;;14.47;;
5690;SDS011;2870;42.680;23.364;2023-05-16T03:39:01;17.73;;;13.13;;
5690;SDS011;2870;42.680;23.364;2023-05-16T03:41:30;25.87;;;15.00;;
5690;SDS011;2870;42.680;23.364;2023-05-16T03:43:57;19.90;;;14.40;;
5690;SDS011;2870;42.680;23.364;2023-05-16T03:46:24;22.60;;;15.30;;
5690;SDS011;2870;42.680;23.364;2023-05-16T03:48:51;19.37;;;14.70;;
5690;SDS011;2870;42.680;23.364;2023-05-16T03:51:17;21.97;;;14.10;;
5690;SDS011;2870;42.680;23.364;2023-05-16T03:53:44;21.43;;;15.20;;
5690;SDS011;2870;42.680;23.364;2023-05-16T03:56:11;20.00;;;15.30;;
5690;SDS011;2870;42.680;23.364;2023-05-16T03:58:39;23.30;;;15.40;;
5690;SDS011;2870;42.680;23.364;2023-05-16T04:01:06;18.53;;;14.77;;
5690;SDS011;2870;42.680;23.364;2023-05-16T04:03:33;25.07;;;16.40;;
5690;SDS011;2870;42.680;23.364;2023-05-16T04:06:00;26.60;;;16.00;;
5690;SDS011;2870;42.680;23.364;2023-05-16T04:08:26;21.63;;;15.10;;
5690;SDS011;2870;42.680;23.364;2023-05-16T04:10:53;33.60;;;16.30;;
5690;SDS011;2870;42.680;23.364;2023-05-16T04:13:20;26.70;;;17.53;;
5690;SDS011;2870;42.680;23.364;2023-05-16T04:15:48;23.23;;;16.50;;
5690;SDS011;2870;42.680;23.364;2023-05-16T04:18:15;25.20;;;16.57;;
5690;SDS011;2870;42.680;23.364;2023-05-16T04:20:42;19.83;;;15.50;;
5690;SDS011;2870;42.680;23.364;2023-05-16T04:23:11;29.97;;;15.23;;
5690;SDS011;2870;42.680;23.364;2023-05-16T04:25:38;22.90;;;15.33;;
5690;SDS011;2870;42.680;23.364;2023-05-16T04:28:06;25.47;;;16.13;;
5690;SDS011;2870;42.680;23.364;2023-05-16T04:30:33;25.20;;;16.00;;
5690;SDS011;2870;42.680;23.364;2023-05-16T04:33:01;23.90;;;15.90;;
5690;SDS011;2870;42.680;23.364;2023-05-16T04:35:28;34.80;;;15.03;;
5690;SDS011;2870;42.680;23.364;2023-05-16T04:37:55;26.27;;;17.20;;
5690;SDS011;2870;42.680;23.364;2023-05-16T04:40:21;23.43;;;15.73;;
5690;SDS011;2870;42.680;23.364;2023-05-16T04:42:49;27.40;;;17.30;;
5690;SDS011;2870;42.680;23.364;2023-05-16T04:45:16;18.87;;;15.60;;
5690;SDS011;2870;42.680;23.364;2023-05-16T04:47:43;22.50;;;16.07;;
5690;SDS011;2870;42.680;23.364;2023-05-16T04:50:11;33.80;;;16.87;;
5690;SDS011;2870;42.680;23.364;2023-05-16T04:52:39;31.67;;;16.10;;
5690;SDS011;2870;42.680;23.364;2023-05-16T04:55:06;29.17;;;16.60;;
5690;SDS011;2870;42.680;23.364;2023-05-16T04:57:33;23.07;;;14.83;;
5690;SDS011;2870;42.680;23.364;2023-05-16T05:00:00;28.47;;;15.50;;
5690;SDS011;2870;42.680;23.364;2023-05-16T05:02:29;26.73;;;16.27;;
5690;SDS011;2870;42.680;23.364;2023-05-16T05:04:56;22.20;;;15.50;;
5690;SDS011;2870;42.680;23.364;2023-05-16T05:07:24;23.23;;;15.80;;
5690;SDS011;2870;42.680;23.364;2023-05-16T05:09:53;24.77;;;15.53;;
5690;SDS011;2870;42.680;23.364;2023-05-16T05:12:20;27.37;;;15.93;;
5690;SDS011;2870;42.680;23.364;2023-05-16T05:14:47;25.63;;;16.40;;
5690;SDS011;2870;42.680;23.364;2023-05-16T05:17:13;31.40;;;15.57;;
5690;SDS011;2870;42.680;23.364;2023-05-16T05:19:40;29.03;;;16.93;;
5690;SDS011;2870;42.680;23.364;2023-05-16T05:22:07;35.70;;;17.60;;
5690;SDS011;2870;42.680;23.364;2023-05-16T05:24:35;27.83;;;17.73;;
5690;SDS011;2870;42.680;23.364;2023-05-16T05:27:03;21.53;;;15.57;;
5690;SDS011;2870;42.680;23.364;2023-05-16T05:29:30;29.73;;;16.63;;
5690;SDS011;2870;42.680;23.364;2023-05-16T05:31:58;34.63;;;16.27;;
5690;SDS011;2870;42.680;23.364;2023-05-16T05:34:25;23.53;;;15.53;;
5690;SDS011;2870;42.680;23.364;2023-05-16T05:36:51;30.20;;;16.23;;
5690;SDS011;2870;42.680;23.364;2023-05-16T05:39:18;26.90;;;16.70;;
5690;SDS011;2870;42.680;23.364;2023-05-16T05:41:47;27.23;;;15.90;;
5690;SDS011;2870;42.680;23.364;2023-05-16T05:44:13;23.87;;;15.00;;
5690;SDS011;2870;42.680;23.364;2023-05-16T05:46:40;25.77;;;17.07;;
5690;SDS011;2870;42.680;23.364;2023-05-16T05:49:07;33.07;;;15.17;;
5690;SDS011;2870;42.680;23.364;2023-05-16T05:51:34;28.43;;;16.77;;
5690;SDS011;2870;42.680;23.364;2023-05-16T05:54:01;25.50;;;15.90;;
5690;SDS011;2870;42.680;23.364;2023-05-16T05:56:28;25.13;;;15.70;;
5690;SDS011;2870;42.680;23.364;2023-05-16T05:58:56;23.70;;;15.67;;
5690;SDS011;2870;42.680;23.364;2023-05-16T06:01:23;29.00;;;14.90;;
5690;SDS011;2870;42.680;23.364;2023-05-16T06:03:50;26.17;;;16.33;;
5690;SDS011;2870;42.680;23.364;2023-05-16T06:06:16;25.70;;;14.43;;
5690;SDS011;2870;42.680;23.364;2023-05-16T06:08:43;27.53;;;15.23;;
5690;SDS011;2870;42.680;23.364;2023-05-16T06:11:10;31.40;;;14.50;;
5690;SDS011;2870;42.680;23.364;2023-05-16T06:13:37;20.77;;;13.87;;
5690;SDS011;2870;42.680;23.364;2023-05-16T06:16:05;27.27;;;13.27;;
5690;SDS011;2870;42.680;23.364;2023-05-16T06:18:32;21.33;;;13.23;;
5690;SDS011;2870;42.680;23.364;2023-05-16T06:20:59;19.90;;;12.67;;
5690;SDS011;2870;42.680;23.364;2023-05-16T06:23:25;27.07;;;13.07;;
5690;SDS011;2870;42.680;23.364;2023-05-16T06:25:52;22.87;;;13.80;;
5690;SDS011;2870;42.680;23.364;2023-05-16T06:28:19;24.33;;;14.00;;
5690;SDS011;2870;42.680;23.364;2023-05-16T06:30:46;25.80;;;13.90;;
5690;SDS011;2870;42.680;23.364;2023-05-16T06:33:17;24.30;;;13.20;;
5690;SDS011;2870;42.680;23.364;2023-05-16T06:35:43;56.37;;;15.80;;
5690;SDS011;2870;42.680;23.364;2023-05-16T06:38:12;28.47;;;13.93;;
5690;SDS011;2870;42.680;23.364;2023-05-16T06:40:40;20.67;;;13.80;;
5690;SDS011;2870;42.680;23.364;2023-05-16T06:43:06;28.27;;;14.33;;
5690;SDS011;2870;42.680;23.364;2023-05-16T06:45:33;20.60;;;13.53;;
5690;SDS011;2870;42.680;23.364;2023-05-16T06:48:00;23.30;;;14.73;;
5690;SDS011;2870;42.680;23.364;2023-05-16T06:50:29;25.53;;;13.07;;
5690;SDS011;2870;42.680;23.364;2023-05-16T06:52:55;29.03;;;13.43;;
5690;SDS011;2870;42.680;23.364;2023-05-16T06:55:22;25.43;;;13.43;;
5690;SDS011;2870;42.680;23.364;2023-05-16T06:57:49;21.30;;;12.83;;
5690;SDS011;2870;42.680;23.364;2023-05-16T07:00:16;19.77;;;12.73;;
5690;SDS011;2870;42.680;23.364;2023-05-16T07:02:44;16.40;;;13.03;;
5690;SDS011;2870;42.680;23.364;2023-05-16T07:05:10;22.10;;;13.47;;
5690;SDS011;2870;42.680;23.364;2023-05-16T07:07:39;20.27;;;12.33;;
5690;SDS011;2870;42.680;23.364;2023-05-16T07:10:06;19.80;;;12.27;;
5690;SDS011;2870;42.680;23.364;2023-05-16T07:12:34;18.27;;;12.67;;
5690;SDS011;2870;42.680;23.364;2023-05-16T07:15:01;18.03;;;12.60;;
5690;SDS011;2870;42.680;23.364;2023-05-16T07:17:28;15.13;;;11.43;;
5690;SDS011;2870;42.680;23.364;2023-05-16T07:19:55;17.27;;;12.70;;
5690;SDS011;2870;42.680;23.364;2023-05-16T07:22:22;28.60;;;13.17;;
5690;SDS011;2870;42.680;23.364;2023-05-16T07:24:50;16.50;;;12.10;;
5690;SDS011;2870;42.680;23.364;2023-05-16T07:27:21;20.23;;;13.20;;
5690;SDS011;2870;42.680;23.364;2023-05-16T07:29:48;24.17;;;12.97;;
5690;SDS011;2870;42.680;23.364;2023-05-16T07:32:14;17.67;;;11.80;;
5690;SDS011;2870;42.680;23.364;2023-05-16T07:34:41;30.07;;;12.13;;
5690;SDS011;2870;42.680;23.364;2023-05-16T07:37:08;20.33;;;12.63;;
5690;SDS011;2870;42.680;23.364;2023-05-16T07:39:37;20.00;;;11.37;;
5690;SDS011;2870;42.680;23.364;2023-05-16T07:42:05;19.20;;;12.43;;
5690;SDS011;2870;42.680;23.364;2023-05-16T07:44:32;22.37;;;13.03;;
5690;SDS011;2870;42.680;23.364;2023-05-16T07:47:00;19.33;;;12.20;;
5690;SDS011;2870;42.680;23.364;2023-05-16T07:49:27;21.73;;;12.10;;
5690;SDS011;2870;42.680;23.364;2023-05-16T07:51:54;25.50;;;13.60;;
5690;SDS011;2870;42.680;23.364;2023-05-16T07:54:20;24.80;;;12.67;;
5690;SDS011;2870;42.680;23.364;2023-05-16T07:56:47;19.03;;;12.20;;
5690;SDS011;2870;42.680;23.364;2023-05-16T07:59:15;22.03;;;12.17;;
5690;SDS011;2870;42.680;23.364;2023-05-16T08:01:42;23.43;;;13.47;;
5690;SDS011;2870;42.680;23.364;2023-05-16T08:04:09;21.73;;;12.73;;
5690;SDS011;2870;42.680;23.364;2023-05-16T08:06:36;28.40;;;13.00;;
5690;SDS011;2870;42.680;23.364;2023-05-16T08:09:03;20.40;;;12.47;;
5690;SDS011;2870;42.680;23.364;2023-05-16T08:11:29;16.17;;;12.40;;
5690;SDS011;2870;42.680;23.364;2023-05-16T08:13:56;29.60;;;13.80;;
5690;SDS011;2870;42.680;23.364;2023-05-16T08:16:24;19.47;;;11.90;;
5690;SDS011;2870;42.680;23.364;2023-05-16T08:18:51;20.27;;;11.50;;
5690;SDS011;2870;42.680;23.364;2023-05-16T08:21:18;19.93;;;12.23;;
5690;SDS011;2870;42.680;23.364;2023-05-16T08:23:45;17.57;;;12.17;;
5690;SDS011;2870;42.680;23.364;2023-05-16T08:26:11;28.97;;;12.80;;
5690;SDS011;2870;42.680;23.364;2023-05-16T08:28:38;18.27;;;13.67;;
5690;SDS011;2870;42.680;23.364;2023-05-16T08:31:05;28.40;;;15.33;;
5690;SDS011;2870;42.680;23.364;2023-05-16T08:33:33;20.93;;;13.87;;
5690;SDS011;2870;42.680;23.364;2023-05-16T08:36:00;19.60;;;13.20;;
5690;SDS011;2870;42.680;23.364;2023-05-16T08:38:27;18.63;;;13.13;;
5690;SDS011;2870;42.680;23.364;2023-05-16T08:40:53;21.80;;;12.67;;
5690;SDS011;2870;42.680;23.364;2023-05-16T08:43:21;20.00;;;13.10;;
5690;SDS011;2870;42.680;23.364;2023-05-16T08:45:48;19.20;;;12.20;;
5690;SDS011;2870;42.680;23.364;2023-05-16T08:48:14;25.23;;;13.23;;
5690;SDS011;2870;42.680;23.364;2023-05-16T08:50:45;26.90;;;13.10;;
5690;SDS011;2870;42.680;23.364;2023-05-16T08:53:12;21.63;;;12.80;;
5690;SDS011;2870;42.680;23.364;2023-05-16T08:55:42;22.80;;;12.77;;
5690;SDS011;2870;42.680;23.364;2023-05-16T08:58:11;27.73;;;13.03;;
5690;SDS011;2870;42.680;23.364;2023-05-16T09:00:38;19.40;;;11.70;;
5690;SDS011;2870;42.680;23.364;2023-05-16T09:03:06;18.70;;;11.33;;
5690;SDS011;2870;42.680;23.364;2023-05-16T09:05:33;22.00;;;10.83;;
5690;SDS011;2870;42.680;23.364;2023-05-16T09:08:01;20.13;;;11.20;;
5690;SDS011;2870;42.680;23.364;2023-05-16T09:10:28;19.00;;;11.60;;
5690;SDS011;2870;42.680;23.364;2023-05-16T09:12:55;21.00;;;10.37;;
5690;SDS011;2870;42.680;23.364;2023-05-16T09:15:22;27.53;;;11.70;;
5690;SDS011;2870;42.680;23.364;2023-05-16T09:17:48;24.40;;;11.33;;
5690;SDS011;2870;42.680;23.364;2023-05-16T09:20:16;20.23;;;11.70;;
5690;SDS011;2870;42.680;23.364;2023-05-16T09:22:50;19.57;;;11.30;;
5690;SDS011;2870;42.680;23.364;2023-05-16T09:25:20;23.47;;;10.80;;
5690;SDS011;2870;42.680;23.364;2023-05-16T09:27:51;17.70;;;11.80;;
5690;SDS011;2870;42.680;23.364;2023-05-16T09:30:20;19.67;;;11.20;;
5690;SDS011;2870;42.680;23.364;2023-05-16T09:32:50;24.80;;;12.77;;
5690;SDS011;2870;42.680;23.364;2023-05-16T09:35:18;21.47;;;11.67;;
5690;SDS011;2870;42.680;23.364;2023-05-16T09:37:46;19.83;;;11.23;;
5690;SDS011;2870;42.680;23.364;2023-05-16T09:40:13;21.57;;;10.47;;
5690;SDS011;2870;42.680;23.364;2023-05-16T09:42:42;23.50;;;11.80;;
5690;SDS011;2870;42.680;23.364;2023-05-16T09:45:10;14.50;;;10.50;;
5690;SDS011;2870;42.680;23.364;2023-05-16T09:47:39;23.87;;;10.90;;
5690;SDS011;2870;42.680;23.364;2023-05-16T09:50:10;23.80;;;10.53;;
5690;SDS011;2870;42.680;23.364;2023-05-16T09:52:40;13.93;;;10.50;;
5690;SDS011;2870;42.680;23.364;2023-05-16T09:55:07;14.10;;;10.40;;
5690;SDS011;2870;42.680;23.364;2023-05-16T09:57:36;15.77;;;10.13;;
5690;SDS011;2870;42.680;23.364;2023-05-16T10:00:06;26.90;;;9.80;;
5690;SDS011;2870;42.680;23.364;2023-05-16T10:02:35;27.33;;;10.27;;
5690;SDS011;2870;42.680;23.364;2023-05-16T10:05:03;16.93;;;11.17;;
5690;SDS011;2870;42.680;23.364;2023-05-16T10:07:30;17.43;;;10.13;;
5690;SDS011;2870;42.680;23.364;2023-05-16T10:09:59;19.50;;;10.43;;
5690;SDS011;2870;42.680;23.364;2023-05-16T10:12:28;21.00;;;10.53;;
5690;SDS011;2870;42.680;23.364;2023-05-16T10:14:56;19.60;;;10.77;;
5690;SDS011;2870;42.680;23.364;2023-05-16T10:17:26;21.57;;;10.57;;
5690;SDS011;2870;42.680;23.364;2023-05-16T10:19:56;18.97;;;9.57;;
5690;SDS011;2870;42.680;23.364;2023-05-16T10:22:23;19.30;;;9.60;;
5690;SDS011;2870;42.680;23.364;2023-05-16T10:24:53;14.93;;;10.53;;
5690;SDS011;2870;42.680;23.364;2023-05-16T10:27:26;15.77;;;10.07;;
5690;SDS011;2870;42.680;23.364;2023-05-16T10:29:53;30.43;;;11.63;;
5690;SDS011;2870;42.680;23.364;2023-05-16T10:32:22;23.67;;;12.03;;
5690;SDS011;2870;42.680;23.364;2023-05-16T10:34:50;13.70;;;9.77;;
5690;SDS011;2870;42.680;23.364;2023-05-16T10:37:19;18.97;;;11.60;;
5690;SDS011;2870;42.680;23.364;2023-05-16T10:39:46;20.17;;;11.10;;
5690;SDS011;2870;42.680;23.364;2023-05-16T10:42:14;22.90;;;11.20;;
5690;SDS011;2870;42.680;23.364;2023-05-16T10:44:42;23.90;;;10.30;;
5690;SDS011;2870;42.680;23.364;2023-05-16T10:47:09;25.63;;;10.70;;
5690;SDS011;2870;42.680;23.364;2023-05-16T10:49:38;15.00;;;9.60;;
5690;SDS011;2870;42.680;23.364;2023-05-16T10:52:08;28.40;;;9.60;;
5690;SDS011;2870;42.680;23.364;2023-05-16T10:54:36;21.47;;;10.83;;
5690;SDS011;2870;42.680;23.364;2023-05-16T10:57:08;26.17;;;9.77;;
5690;SDS011;2870;42.680;23.364;2023-05-16T10:59:40;21.33;;;10.37;;
5690;SDS011;2870;42.680;23.364;2023-05-16T11:02:21;21.23;;;9.97;;
5690;SDS011;2870;42.680;23.364;2023-05-16T11:04:51;20.33;;;10.67;;
5690;SDS011;2870;42.680;23.364;2023-05-16T11:07:21;19.70;;;10.57;;
5690;SDS011;2870;42.680;23.364;2023-05-16T11:10:00;17.23;;;10.67;;
5690;SDS011;2870;42.680;23.364;2023-05-16T11:12:35;17.50;;;11.47;;
5690;SDS011;2870;42.680;23.364;2023-05-16T11:15:17;19.60;;;11.30;;
5690;SDS011;2870;42.680;23.364;2023-05-16T11:17:45;27.60;;;10.83;;
5690;SDS011;2870;42.680;23.364;2023-05-16T11:25:48;22.80;;;11.10;;
5690;SDS011;2870;42.680;23.364;2023-05-16T11:28:18;28.47;;;11.97;;
5690;SDS011;2870;42.680;23.364;2023-05-16T11:30:46;22.63;;;11.20;;
5690;SDS011;2870;42.680;23.364;2023-05-16T11:33:14;17.77;;;12.40;;
5690;SDS011;2870;42.680;23.364;2023-05-16T11:35:41;27.83;;;10.37;;
5690;SDS011;2870;42.680;23.364;2023-05-16T11:38:12;20.43;;;11.07;;
5690;SDS011;2870;42.680;23.364;2023-05-16T11:40:44;17.60;;;10.00;;
5690;SDS011;2870;42.680;23.364;2023-05-16T11:43:16;17.83;;;10.93;;
5690;SDS011;2870;42.680;23.364;2023-05-16T11:45:44;19.40;;;10.77;;
5690;SDS011;2870;42.680;23.364;2023-05-16T11:48:11;18.70;;;10.90;;
5690;SDS011;2870;42.680;23.364;2023-05-16T11:50:38;18.97;;;10.57;;
5690;SDS011;2870;42.680;23.364;2023-05-16T11:53:05;20.87;;;12.50;;
5690;SDS011;2870;42.680;23.364;2023-05-16T11:55:32;29.77;;;11.60;;
5690;SDS011;2870;42.680;23.364;2023-05-16T11:58:01;14.10;;;10.50;;
5690;SDS011;2870;42.680;23.364;2023-05-16T12:00:28;27.80;;;10.53;;
5690;SDS011;2870;42.680;23.364;2023-05-16T12:02:59;20.83;;;11.37;;
5690;SDS011;2870;42.680;23.364;2023-05-16T12:05:27;13.10;;;9.53;;
5690;SDS011;2870;42.680;23.364;2023-05-16T12:07:55;19.03;;;10.20;;
5690;SDS011;2870;42.680;23.364;2023-05-16T12:10:22;21.60;;;12.10;;
5690;SDS011;2870;42.680;23.364;2023-05-16T12:12:49;20.40;;;10.80;;
5690;SDS011;2870;42.680;23.364;2023-05-16T12:15:19;16.13;;;9.10;;
5690;SDS011;2870;42.680;23.364;2023-05-16T12:17:46;18.47;;;8.97;;
5690;SDS011;2870;42.680;23.364;2023-05-16T12:20:13;19.57;;;9.47;;
5690;SDS011;2870;42.680;23.364;2023-05-16T12:22:41;23.00;;;9.27;;
5690;SDS011;2870;42.680;23.364;2023-05-16T12:25:25;13.90;;;10.20;;
5690;SDS011;2870;42.680;23.364;2023-05-16T12:27:53;19.07;;;8.67;;
5690;SDS011;2870;42.680;23.364;2023-05-16T12:30:22;21.00;;;9.90;;
5690;SDS011;2870;42.680;23.364;2023-05-16T12:32:56;18.20;;;9.30;;
5690;SDS011;2870;42.680;23.364;2023-05-16T12:35:23;18.23;;;8.97;;
5690;SDS011;2870;42.680;23.364;2023-05-16T12:37:50;17.30;;;9.10;;
5690;SDS011;2870;42.680;23.364;2023-05-16T12:40:18;13.40;;;8.97;;
5690;SDS011;2870;42.680;23.364;2023-05-16T12:42:45;19.47;;;9.60;;
5690;SDS011;2870;42.680;23.364;2023-05-16T12:45:15;16.63;;;9.60;;
5690;SDS011;2870;42.680;23.364;2023-05-16T12:47:43;19.73;;;10.03;;
5690;SDS011;2870;42.680;23.364;2023-05-16T12:50:11;17.07;;;10.10;;
5690;SDS011;2870;42.680;23.364;2023-05-16T12:52:47;16.70;;;9.97;;
5690;SDS011;2870;42.680;23.364;2023-05-16T12:55:15;14.53;;;9.87;;
5690;SDS011;2870;42.680;23.364;2023-05-16T12:57:42;14.80;;;10.10;;
5690;SDS011;2870;42.680;23.364;2023-05-16T13:00:12;21.03;;;9.90;;
5690;SDS011;2870;42.680;23.364;2023-05-16T13:02:40;24.00;;;11.13;;
5690;SDS011;2870;42.680;23.364;2023-05-16T13:05:08;25.90;;;13.97;;
5690;SDS011;2870;42.680;23.364;2023-05-16T13:07:35;28.63;;;12.60;;
5690;SDS011;2870;42.680;23.364;2023-05-16T13:10:05;18.50;;;10.60;;
5690;SDS011;2870;42.680;23.364;2023-05-16T13:12:34;20.17;;;12.23;;
5690;SDS011;2870;42.680;23.364;2023-05-16T13:15:02;19.60;;;11.40;;
5690;SDS011;2870;42.680;23.364;2023-05-16T13:17:31;23.73;;;12.10;;
5690;SDS011;2870;42.680;23.364;2023-05-16T13:19:58;20.03;;;11.87;;
5690;SDS011;2870;42.680;23.364;2023-05-16T13:22:27;27.63;;;12.13;;
5690;SDS011;2870;42.680;23.364;2023-05-16T13:24:54;21.93;;;10.10;;
5690;SDS011;2870;42.680;23.364;2023-05-16T13:27:20;19.17;;;10.50;;
5690;SDS011;2870;42.680;23.364;2023-05-16T13:29:47;20.50;;;10.13;;
5690;SDS011;2870;42.680;23.364;2023-05-16T13:32:14;23.03;;;11.43;;
5690;SDS011;2870;42.680;23.364;2023-05-16T13:34:41;21.20;;;10.20;;
5690;SDS011;2870;42.680;23.364;2023-05-16T13:37:09;19.53;;;10.33;;
5690;SDS011;2870;42.680;23.364;2023-05-16T13:39:37;20.43;;;10.50;;
5690;SDS011;2870;42.680;23.364;2023-05-16T13:42:05;15.90;;;10.30;;
5690;SDS011;2870;42.680;23.364;2023-05-16T13:44:32;17.50;;;10.43;;
5690;SDS011;2870;42.680;23.364;2023-05-16T13:46:59;25.27;;;11.47;;
5690;SDS011;2870;42.680;23.364;2023-05-16T13:49:26;16.23;;;10.20;;
5690;SDS011;2870;42.680;23.364;2023-05-16T13:51:53;20.93;;;10.80;;
5690;SDS011;2870;42.680;23.364;2023-05-16T13:54:21;22.53;;;11.17;;
5690;SDS011;2870;42.680;23.364;2023-05-16T13:56:49;43.23;;;18.93;;
5690;SDS011;2870;42.680;23.364;2023-05-16T13:59:16;21.50;;;11.30;;
5690;SDS011;2870;42.680;23.364;2023-05-16T14:01:42;37.87;;;10.60;;
5690;SDS011;2870;42.680;23.364;2023-05-16T14:04:10;27.73;;;14.20;;
5690;SDS011;2870;42.680;23.364;2023-05-16T14:06:36;31.90;;;12.20;;
5690;SDS011;2870;42.680;23.364;2023-05-16T14:09:03;20.47;;;11.70;;
5690;SDS011;2870;42.680;23.364;2023-05-16T14:11:30;30.47;;;12.97;;
5690;SDS011;2870;42.680;23.364;2023-05-16T14:13:58;18.03;;;11.20;;
5690;SDS011;2870;42.680;23.364;2023-05-16T14:16:25;24.47;;;12.10;;
5690;SDS011;2870;42.680;23.364;2023-05-16T14:18:52;30.40;;;13.07;;
5690;SDS011;2870;42.680;23.364;2023-05-16T14:21:19;34.20;;;13.27;;
5690;SDS011;2870;42.680;23.364;2023-05-16T14:23:46;26.93;;;13.73;;
5690;SDS011;2870;42.680;23.364;2023-05-16T14:26:12;22.00;;;12.60;;
5690;SDS011;2870;42.680;23.364;2023-05-16T14:28:40;30.00;;;13.70;;
5690;SDS011;2870;42.680;23.364;2023-05-16T14:31:08;21.50;;;13.07;;
5690;SDS011;2870;42.680;23.364;2023-05-16T14:33:35;23.07;;;12.10;;
5690;SDS011;2870;42.680;23.364;2023-05-16T14:36:02;31.03;;;12.80;;
5690;SDS011;2870;42.680;23.364;2023-05-16T14:38:29;23.73;;;12.50;;
5690;SDS011;2870;42.680;23.364;2023-05-16T14:40:56;25.73;;;13.80;;
5690;SDS011;2870;42.680;23.364;2023-05-16T14:43:22;30.10;;;14.47;;
5690;SDS011;2870;42.680;23.364;2023-05-16T14:45:49;33.17;;;15.20;;